sensor_id;sensor_type;location;lat;lon;timestamp;pressure;altitude;pressure_sealevel;temperature;humidity
79463;BME280;68931;47.286;18.756;2024-03-23T00:51:47;100342.94;;;4.42;99.35
79463;BME280;68931;47.286;18.756;2024-03-23T00:52:50;100339.47;;;4.41;100.00
79463;BME280;68931;47.286;18.756;2024-03-23T00:53:21;100336.94;;;4.40;99.56
79463;BME280;68931;47.286;18.756;2024-03-23T00:53:52;100325.13;;;4.31;100.00
79463;BME280;68931;47.286;18.756;2024-03-23T00:54:22;100331.13;;;4.33;100.00
79463;BME280;68931;47.286;18.756;2024-03-23T00:54:53;100335.50;;;4.31;100.00
79463;BME280;68931;47.286;18.756;2024-03-23T00:55:24;100329.38;;;4.34;100.00
79463;BME280;68931;47.286;18.756;2024-03-23T00:55:55;100325.97;;;4.32;100.00
79463;BME280;68931;47.286;18.756;2024-03-23T00:56:28;100326.81;;;4.32;100.00
79463;BME280;68931;47.286;18.756;2024-03-23T00:57:02;100332.81;;;4.34;100.00
79463;BME280;68931;47.286;18.756;2024-03-23T00:57:33;100326.94;;;4.29;100.00
79463;BME280;68931;47.286;18.756;2024-03-23T00:58:04;100326.19;;;4.26;100.00
79463;BME280;68931;47.286;18.756;2024-03-23T00:58:35;100322.69;;;4.27;99.68
79463;BME280;68931;47.286;18.756;2024-03-23T00:59:05;100315.91;;;4.23;99.29
79463;BME280;68931;47.286;18.756;2024-03-23T00:59:36;100328.78;;;4.26;99.99
79463;BME280;68931;47.286;18.756;2024-03-23T01:00:13;100309.28;;;4.14;99.07
79463;BME280;68931;47.286;18.756;2024-03-23T01:00:44;100318.66;;;4.18;99.18
79463;BME280;68931;47.286;18.756;2024-03-23T01:01:15;100312.56;;;4.19;98.30
79463;BME280;68931;47.286;18.756;2024-03-23T01:01:46;100320.38;;;4.19;98.66
79463;BME280;68931;47.286;18.756;2024-03-23T01:02:17;100321.00;;;4.26;99.16
79463;BME280;68931;47.286;18.756;2024-03-23T01:02:48;100310.13;;;4.14;99.22
79463;BME280;68931;47.286;18.756;2024-03-23T01:03:19;100317.72;;;4.21;99.04
79463;BME280;68931;47.286;18.756;2024-03-23T01:03:49;100327.97;;;4.24;98.95
79463;BME280;68931;47.286;18.756;2024-03-23T01:04:20;100310.97;;;4.15;98.35
79463;BME280;68931;47.286;18.756;2024-03-23T01:04:51;100321.25;;;4.18;98.37
79463;BME280;68931;47.286;18.756;2024-03-23T01:05:22;100322.91;;;4.21;98.97
79463;BME280;68931;47.286;18.756;2024-03-23T01:05:53;100304.25;;;4.09;99.27
79463;BME280;68931;47.286;18.756;2024-03-23T01:06:24;100299.06;;;4.09;99.25
79463;BME280;68931;47.286;18.756;2024-03-23T01:06:55;100319.56;;;4.17;99.33
79463;BME280;68931;47.286;18.756;2024-03-23T01:07:26;100310.97;;;4.15;99.39
79463;BME280;68931;47.286;18.756;2024-03-23T01:07:57;100309.28;;;4.14;100.00
79463;BME280;68931;47.286;18.756;2024-03-23T01:08:28;100302.41;;;4.13;99.77
79463;BME280;68931;47.286;18.756;2024-03-23T01:09:01;100292.25;;;4.05;100.00
79463;BME280;68931;47.286;18.756;2024-03-23T01:09:32;100277.84;;;3.97;100.00
79463;BME280;68931;47.286;18.756;2024-03-23T01:10:03;100312.63;;;4.18;100.00
79463;BME280;68931;47.286;18.756;2024-03-23T01:10:34;100269.44;;;3.90;100.00
79463;BME280;68931;47.286;18.756;2024-03-23T01:11:05;100278.69;;;3.97;100.00
79463;BME280;68931;47.286;18.756;2024-03-23T01:11:36;100305.31;;;4.04;100.00
79463;BME280;68931;47.286;18.756;2024-03-23T01:12:07;100284.03;;;3.94;100.00
79463;BME280;68931;47.286;18.756;2024-03-23T01:12:38;100269.78;;;3.79;100.00
79463;BME280;68931;47.286;18.756;2024-03-23T01:13:09;100280.84;;;3.86;100.00
79463;BME280;68931;47.286;18.756;2024-03-23T01:13:40;100278.16;;;3.88;100.00
79463;BME280;68931;47.286;18.756;2024-03-23T01:14:11;100295.03;;;4.01;100.00
79463;BME280;68931;47.286;18.756;2024-03-23T01:14:42;100272.13;;;3.87;100.00
79463;BME280;68931;47.286;18.756;2024-03-23T01:15:19;100290.06;;;3.95;100.00
79463;BME280;68931;47.286;18.756;2024-03-23T01:15:53;100290.84;;;3.97;100.00
79463;BME280;68931;47.286;18.756;2024-03-23T01:16:24;100304.31;;;4.08;100.00
79463;BME280;68931;47.286;18.756;2024-03-23T01:16:55;100271.31;;;3.87;100.00
79463;BME280;68931;47.286;18.756;2024-03-23T01:17:25;100272.09;;;3.89;100.00
79463;BME280;68931;47.286;18.756;2024-03-23T01:17:56;100282.28;;;3.95;100.00
79463;BME280;68931;47.286;18.756;2024-03-23T01:18:27;100280.53;;;3.95;100.00
79463;BME280;68931;47.286;18.756;2024-03-23T01:18:58;100279.69;;;3.95;100.00
79463;BME280;68931;47.286;18.756;2024-03-23T01:19:29;100299.28;;;4.03;100.00
79463;BME280;68931;47.286;18.756;2024-03-23T01:20:00;100267.06;;;3.84;100.00
79463;BME280;68931;47.286;18.756;2024-03-23T01:20:31;100258.53;;;3.81;100.00
79463;BME280;68931;47.286;18.756;2024-03-23T01:21:02;100275.56;;;3.88;100.00
79463;BME280;68931;47.286;18.756;2024-03-23T01:21:33;100284.06;;;3.93;100.00
79463;BME280;68931;47.286;18.756;2024-03-23T01:22:04;100284.13;;;3.91;100.00
79463;BME280;68931;47.286;18.756;2024-03-23T01:22:38;100263.66;;;3.82;100.00
79463;BME280;68931;47.286;18.756;2024-03-23T01:23:08;100263.56;;;3.85;100.00
79463;BME280;68931;47.286;18.756;2024-03-23T01:23:39;100277.31;;;3.87;100.00
79463;BME280;68931;47.286;18.756;2024-03-23T01:24:10;100282.31;;;3.93;100.00
79463;BME280;68931;47.286;18.756;2024-03-23T01:24:41;100267.91;;;3.85;100.00
79463;BME280;68931;47.286;18.756;2024-03-23T01:25:12;100261.25;;;3.77;100.00
79463;BME280;68931;47.286;18.756;2024-03-23T01:25:43;100256.13;;;3.74;100.00
79463;BME280;68931;47.286;18.756;2024-03-23T01:26:14;100284.06;;;3.93;100.00
79463;BME280;68931;47.286;18.756;2024-03-23T01:26:45;100258.53;;;3.81;100.00
79463;BME280;68931;47.286;18.756;2024-03-23T01:27:16;100291.63;;;3.99;100.00
79463;BME280;68931;47.286;18.756;2024-03-23T01:27:47;100272.13;;;3.87;100.00
79463;BME280;68931;47.286;18.756;2024-03-23T01:28:17;100255.06;;;3.80;100.00
79463;BME280;68931;47.286;18.756;2024-03-23T01:28:48;100279.88;;;3.89;99.58
79463;BME280;68931;47.286;18.756;2024-03-23T01:29:19;100266.22;;;3.84;99.98
79463;BME280;68931;47.286;18.756;2024-03-23T01:29:50;100262.91;;;3.78;99.22
79463;BME280;68931;47.286;18.756;2024-03-23T01:30:22;100277.13;;;3.93;99.39
79463;BME280;68931;47.286;18.756;2024-03-23T01:30:53;100253.38;;;3.79;99.44
79463;BME280;68931;47.286;18.756;2024-03-23T01:31:24;100249.16;;;3.76;99.83
79463;BME280;68931;47.286;18.756;2024-03-23T01:31:55;100283.16;;;3.94;99.00
79463;BME280;68931;47.286;18.756;2024-03-23T01:32:26;100260.13;;;3.85;99.46
79463;BME280;68931;47.286;18.756;2024-03-23T01:32:57;100238.06;;;3.71;99.38
79463;BME280;68931;47.286;18.756;2024-03-23T01:33:27;100255.84;;;3.84;99.12
79463;BME280;68931;47.286;18.756;2024-03-23T01:33:58;100239.72;;;3.74;99.08
79463;BME280;68931;47.286;18.756;2024-03-23T01:34:29;100270.28;;;3.91;99.28
79463;BME280;68931;47.286;18.756;2024-03-23T01:35:00;100267.78;;;3.88;99.21
79463;BME280;68931;47.286;18.756;2024-03-23T01:35:31;100257.63;;;3.82;98.78
79463;BME280;68931;47.286;18.756;2024-03-23T01:36:02;100257.56;;;3.83;98.69
79463;BME280;68931;47.286;18.756;2024-03-23T01:36:33;100267.88;;;3.86;98.89
79463;BME280;68931;47.286;18.756;2024-03-23T01:37:04;100260.94;;;3.87;98.60
79463;BME280;68931;47.286;18.756;2024-03-23T01:37:35;100280.53;;;3.95;98.51
79463;BME280;68931;47.286;18.756;2024-03-23T01:38:06;100255.13;;;3.78;98.72
79463;BME280;68931;47.286;18.756;2024-03-23T01:38:37;100243.25;;;3.71;99.04
79463;BME280;68931;47.286;18.756;2024-03-23T01:39:07;100261.81;;;3.86;99.06
79463;BME280;68931;47.286;18.756;2024-03-23T01:39:40;100242.31;;;3.74;99.03
79463;BME280;68931;47.286;18.756;2024-03-23T01:40:11;100260.19;;;3.83;98.82
79463;BME280;68931;47.286;18.756;2024-03-23T01:40:43;100277.97;;;3.94;99.15
79463;BME280;68931;47.286;18.756;2024-03-23T01:41:14;100256.81;;;3.79;98.71
79463;BME280;68931;47.286;18.756;2024-03-23T01:41:46;100256.06;;;3.77;98.90
79463;BME280;68931;47.286;18.756;2024-03-23T01:42:19;100234.00;;;3.64;98.88
79463;BME280;68931;47.286;18.756;2024-03-23T01:42:58;100251.84;;;3.73;98.25
79463;BME280;68931;47.286;18.756;2024-03-23T01:43:32;100258.47;;;3.82;98.25
79463;BME280;68931;47.286;18.756;2024-03-23T01:44:05;100278.91;;;3.91;98.20
79463;BME280;68931;47.286;18.756;2024-03-23T01:44:39;100289.25;;;3.93;98.03
79463;BME280;68931;47.286;18.756;2024-03-23T01:45:10;100275.69;;;3.85;98.68
79463;BME280;68931;47.286;18.756;2024-03-23T01:45:41;100255.34;;;3.72;99.00
79463;BME280;68931;47.286;18.756;2024-03-23T01:46:13;100263.13;;;3.72;98.72
79463;BME280;68931;47.286;18.756;2024-03-23T01:46:44;100250.41;;;3.65;98.82
79463;BME280;68931;47.286;18.756;2024-03-23T01:47:15;100262.13;;;3.76;97.87
79463;BME280;68931;47.286;18.756;2024-03-23T01:47:46;100249.47;;;3.67;98.35
79463;BME280;68931;47.286;18.756;2024-03-23T01:48:17;100255.44;;;3.69;98.93
79463;BME280;68931;47.286;18.756;2024-03-23T01:48:47;100261.47;;;3.70;98.67
79463;BME280;68931;47.286;18.756;2024-03-23T01:49:20;100287.88;;;3.83;98.40
79463;BME280;68931;47.286;18.756;2024-03-23T01:49:51;100274.25;;;3.76;98.73
79463;BME280;68931;47.286;18.756;2024-03-23T01:50:23;100256.34;;;3.68;98.70
79463;BME280;68931;47.286;18.756;2024-03-23T01:50:56;100263.13;;;3.72;97.87
79463;BME280;68931;47.286;18.756;2024-03-23T01:51:28;100257.38;;;3.63;98.49
79463;BME280;68931;47.286;18.756;2024-03-23T01:52:00;100260.88;;;3.62;98.32
79463;BME280;68931;47.286;18.756;2024-03-23T01:52:30;100243.72;;;3.58;98.57
79463;BME280;68931;47.286;18.756;2024-03-23T01:53:02;100243.72;;;3.58;98.53
79463;BME280;68931;47.286;18.756;2024-03-23T01:53:33;100237.69;;;3.57;97.95
79463;BME280;68931;47.286;18.756;2024-03-23T01:54:05;100234.50;;;3.49;97.99
79463;BME280;68931;47.286;18.756;2024-03-23T01:54:38;100247.25;;;3.55;98.46
79463;BME280;68931;47.286;18.756;2024-03-23T01:55:09;100253.03;;;3.63;98.05
79463;BME280;68931;47.286;18.756;2024-03-23T01:55:40;100228.38;;;3.52;97.63
79463;BME280;68931;47.286;18.756;2024-03-23T01:56:12;100253.03;;;3.63;98.37
79463;BME280;68931;47.286;18.756;2024-03-23T01:56:43;100248.88;;;3.59;98.18
79463;BME280;68931;47.286;18.756;2024-03-23T01:57:15;100227.72;;;3.45;97.90
79463;BME280;68931;47.286;18.756;2024-03-23T01:57:46;100238.00;;;3.48;98.31
79463;BME280;68931;47.286;18.756;2024-03-23T01:58:20;100214.16;;;3.37;98.00
79463;BME280;68931;47.286;18.756;2024-03-23T01:58:51;100248.13;;;3.56;98.47
79463;BME280;68931;47.286;18.756;2024-03-23T01:59:21;100235.50;;;3.45;98.85
79463;BME280;68931;47.286;18.756;2024-03-23T01:59:52;100242.34;;;3.48;98.77
79463;BME280;68931;47.286;18.756;2024-03-23T02:00:24;100216.97;;;3.31;98.59
79463;BME280;68931;47.286;18.756;2024-03-23T02:00:57;100211.00;;;3.27;99.33
79463;BME280;68931;47.286;18.756;2024-03-23T02:01:28;100243.13;;;3.50;99.77
79463;BME280;68931;47.286;18.756;2024-03-23T02:01:59;100236.50;;;3.41;99.38
79463;BME280;68931;47.286;18.756;2024-03-23T02:02:30;100265.41;;;3.55;99.62
79463;BME280;68931;47.286;18.756;2024-03-23T02:03:01;100262.16;;;3.50;99.57
79463;BME280;68931;47.286;18.756;2024-03-23T02:03:32;100231.50;;;3.35;99.66
79463;BME280;68931;47.286;18.756;2024-03-23T02:04:03;100259.44;;;3.53;99.89
79463;BME280;68931;47.286;18.756;2024-03-23T02:04:34;100229.72;;;3.37;99.34
79463;BME280;68931;47.286;18.756;2024-03-23T02:05:05;100227.13;;;3.37;100.00
79463;BME280;68931;47.286;18.756;2024-03-23T02:05:36;100234.84;;;3.38;99.28
79463;BME280;68931;47.286;18.756;2024-03-23T02:06:08;100265.50;;;3.52;99.65
79463;BME280;68931;47.286;18.756;2024-03-23T02:06:39;100223.03;;;3.30;99.75
79463;BME280;68931;47.286;18.756;2024-03-23T02:07:10;100245.91;;;3.44;99.73
79463;BME280;68931;47.286;18.756;2024-03-23T02:07:42;100240.97;;;3.36;100.00
79463;BME280;68931;47.286;18.756;2024-03-23T02:08:13;100223.13;;;3.27;99.50
79463;BME280;68931;47.286;18.756;2024-03-23T02:08:45;100253.56;;;3.48;99.73
79463;BME280;68931;47.286;18.756;2024-03-23T02:09:15;100206.84;;;3.23;100.00
79463;BME280;68931;47.286;18.756;2024-03-23T02:09:47;100247.56;;;3.46;100.00
79463;BME280;68931;47.286;18.756;2024-03-23T02:10:17;100249.22;;;3.49;99.79
79463;BME280;68931;47.286;18.756;2024-03-23T02:10:49;100244.25;;;3.43;100.00
79463;BME280;68931;47.286;18.756;2024-03-23T02:11:21;100225.59;;;3.31;99.99
79463;BME280;68931;47.286;18.756;2024-03-23T02:11:52;100209.38;;;3.25;100.00
79463;BME280;68931;47.286;18.756;2024-03-23T02:12:22;100266.53;;;3.48;99.71
79463;BME280;68931;47.286;18.756;2024-03-23T02:12:53;100228.22;;;3.30;99.74
79463;BME280;68931;47.286;18.756;2024-03-23T02:13:24;100211.25;;;3.20;99.10
79463;BME280;68931;47.286;18.756;2024-03-23T02:13:55;100220.75;;;3.21;99.98
79463;BME280;68931;47.286;18.756;2024-03-23T02:14:26;100220.59;;;3.25;100.00
79463;BME280;68931;47.286;18.756;2024-03-23T02:14:57;100224.88;;;3.26;99.67
79463;BME280;68931;47.286;18.756;2024-03-23T02:15:28;100232.47;;;3.32;99.17
79463;BME280;68931;47.286;18.756;2024-03-23T02:15:59;100210.38;;;3.21;99.76
79463;BME280;68931;47.286;18.756;2024-03-23T02:16:29;100235.16;;;3.29;98.94
79463;BME280;68931;47.286;18.756;2024-03-23T02:17:00;100218.03;;;3.25;99.00
79463;BME280;68931;47.286;18.756;2024-03-23T02:17:34;100206.97;;;3.19;99.12
79463;BME280;68931;47.286;18.756;2024-03-23T02:18:07;100212.13;;;3.20;99.33
79463;BME280;68931;47.286;18.756;2024-03-23T02:18:39;100218.91;;;3.24;98.93
79463;BME280;68931;47.286;18.756;2024-03-23T02:19:12;100235.78;;;3.36;99.05
79463;BME280;68931;47.286;18.756;2024-03-23T02:19:43;100205.16;;;3.22;99.19
79463;BME280;68931;47.286;18.756;2024-03-23T02:20:14;100233.19;;;3.36;98.69
79463;BME280;68931;47.286;18.756;2024-03-23T02:20:45;100220.41;;;3.31;99.62
79463;BME280;68931;47.286;18.756;2024-03-23T02:21:16;100219.59;;;3.29;98.46
79463;BME280;68931;47.286;18.756;2024-03-23T02:21:47;100224.75;;;3.31;99.08
79463;BME280;68931;47.286;18.756;2024-03-23T02:22:18;100224.78;;;3.29;98.91
79463;BME280;68931;47.286;18.756;2024-03-23T02:22:53;100228.13;;;3.33;99.21
79463;BME280;68931;47.286;18.756;2024-03-23T02:23:24;100229.72;;;3.37;98.76
79463;BME280;68931;47.286;18.756;2024-03-23T02:23:55;100216.97;;;3.31;99.33
79463;BME280;68931;47.286;18.756;2024-03-23T02:24:26;100221.28;;;3.30;99.19
79463;BME280;68931;47.286;18.756;2024-03-23T02:24:56;100252.78;;;3.45;98.66
79463;BME280;68931;47.286;18.756;2024-03-23T02:25:27;100236.69;;;3.35;98.61
79463;BME280;68931;47.286;18.756;2024-03-23T02:25:58;100218.06;;;3.24;99.08
79463;BME280;68931;47.286;18.756;2024-03-23T02:26:29;100217.16;;;3.25;99.38
79463;BME280;68931;47.286;18.756;2024-03-23T02:27:01;100223.19;;;3.25;99.24
79463;BME280;68931;47.286;18.756;2024-03-23T02:27:33;100236.81;;;3.32;98.37
79463;BME280;68931;47.286;18.756;2024-03-23T02:28:05;100210.47;;;3.18;99.01
79463;BME280;68931;47.286;18.756;2024-03-23T02:28:36;100213.06;;;3.18;98.65
79463;BME280;68931;47.286;18.756;2024-03-23T02:29:07;100229.88;;;3.32;99.17
79463;BME280;68931;47.286;18.756;2024-03-23T02:29:39;100213.94;;;3.17;99.52
79463;BME280;68931;47.286;18.756;2024-03-23T02:30:10;100228.31;;;3.27;98.92
79463;BME280;68931;47.286;18.756;2024-03-23T02:30:41;100219.84;;;3.22;99.06
79463;BME280;68931;47.286;18.756;2024-03-23T02:31:12;100201.19;;;3.11;98.75
79463;BME280;68931;47.286;18.756;2024-03-23T02:31:43;100199.44;;;3.11;99.21
79463;BME280;68931;47.286;18.756;2024-03-23T02:32:14;100211.31;;;3.18;99.38
79463;BME280;68931;47.286;18.756;2024-03-23T02:32:45;100213.06;;;3.18;99.65
79463;BME280;68931;47.286;18.756;2024-03-23T02:33:16;100212.16;;;3.19;99.61
79463;BME280;68931;47.286;18.756;2024-03-23T02:33:47;100223.13;;;3.27;99.60
79463;BME280;68931;47.286;18.756;2024-03-23T02:34:18;100218.94;;;3.23;99.80
79463;BME280;68931;47.286;18.756;2024-03-23T02:34:49;100205.47;;;3.12;99.98
79463;BME280;68931;47.286;18.756;2024-03-23T02:35:20;100185.81;;;3.06;100.00
79463;BME280;68931;47.286;18.756;2024-03-23T02:35:55;100189.31;;;3.03;100.00
79463;BME280;68931;47.286;18.756;2024-03-23T02:36:29;100197.06;;;3.05;100.00
79463;BME280;68931;47.286;18.756;2024-03-23T02:37:01;100181.84;;;2.94;100.00
79463;BME280;68931;47.286;18.756;2024-03-23T02:37:32;100226.78;;;3.21;100.00
79463;BME280;68931;47.286;18.756;2024-03-23T02:38:03;100236.16;;;3.25;100.00
79463;BME280;68931;47.286;18.756;2024-03-23T02:38:34;100201.19;;;3.11;100.00
79463;BME280;68931;47.286;18.756;2024-03-23T02:39:05;100203.91;;;3.08;100.00
79463;BME280;68931;47.286;18.756;2024-03-23T02:39:37;100197.91;;;3.06;100.00
79463;BME280;68931;47.286;18.756;2024-03-23T02:40:08;100196.22;;;3.05;100.00
79463;BME280;68931;47.286;18.756;2024-03-23T02:40:39;100183.47;;;2.98;99.91
79463;BME280;68931;47.286;18.756;2024-03-23T02:41:09;100211.47;;;3.14;100.00
79463;BME280;68931;47.286;18.756;2024-03-23T02:41:41;100192.81;;;3.02;100.00
79463;BME280;68931;47.286;18.756;2024-03-23T02:42:12;100190.19;;;3.04;100.00
79463;BME280;68931;47.286;18.756;2024-03-23T02:42:43;100204.66;;;3.10;100.00
79463;BME280;68931;47.286;18.756;2024-03-23T02:43:14;100191.03;;;3.05;100.00
79463;BME280;68931;47.286;18.756;2024-03-23T02:43:44;100206.25;;;3.15;100.00
79463;BME280;68931;47.286;18.756;2024-03-23T02:44:18;100191.97;;;3.02;100.00
79463;BME280;68931;47.286;18.756;2024-03-23T02:44:49;100186.13;;;2.95;100.00
79463;BME280;68931;47.286;18.756;2024-03-23T02:45:20;100196.28;;;3.01;100.00
79463;BME280;68931;47.286;18.756;2024-03-23T02:45:51;100203.25;;;2.99;100.00
79463;BME280;68931;47.286;18.756;2024-03-23T02:46:22;100214.19;;;3.09;100.00
79463;BME280;68931;47.286;18.756;2024-03-23T02:46:53;100193.88;;;2.97;100.00
79463;BME280;68931;47.286;18.756;2024-03-23T02:47:24;100182.16;;;2.84;100.00
79463;BME280;68931;47.286;18.756;2024-03-23T02:47:55;100168.50;;;2.80;100.00
79463;BME280;68931;47.286;18.756;2024-03-23T02:48:27;100202.44;;;2.99;100.00
79463;BME280;68931;47.286;18.756;2024-03-23T02:48:58;100194.88;;;2.91;100.00
79463;BME280;68931;47.286;18.756;2024-03-23T02:49:29;100177.09;;;2.81;100.00
79463;BME280;68931;47.286;18.756;2024-03-23T02:50:00;100207.50;;;3.02;100.00
79463;BME280;68931;47.286;18.756;2024-03-23T02:50:30;100222.72;;;3.13;100.00
79463;BME280;68931;47.286;18.756;2024-03-23T02:51:01;100185.38;;;2.92;100.00
79463;BME280;68931;47.286;18.756;2024-03-23T02:51:32;100188.81;;;2.92;100.00
79463;BME280;68931;47.286;18.756;2024-03-23T02:52:03;100176.13;;;2.83;100.00
79463;BME280;68931;47.286;18.756;2024-03-23T02:52:34;100176.91;;;2.87;100.00
79463;BME280;68931;47.286;18.756;2024-03-23T02:53:05;100190.47;;;2.95;100.00
79463;BME280;68931;47.286;18.756;2024-03-23T02:53:36;100192.97;;;2.98;100.00
79463;BME280;68931;47.286;18.756;2024-03-23T02:54:07;100186.97;;;2.96;100.00
79463;BME280;68931;47.286;18.756;2024-03-23T02:54:38;100208.28;;;3.06;100.00
79463;BME280;68931;47.286;18.756;2024-03-23T02:55:09;100190.44;;;2.96;100.00
79463;BME280;68931;47.286;18.756;2024-03-23T02:55:40;100192.00;;;3.00;100.00
79463;BME280;68931;47.286;18.756;2024-03-23T02:56:11;100182.78;;;2.92;100.00
79463;BME280;68931;47.286;18.756;2024-03-23T02:56:46;100169.97;;;2.87;100.00
79463;BME280;68931;47.286;18.756;2024-03-23T02:57:17;100217.50;;;3.14;100.00
79463;BME280;68931;47.286;18.756;2024-03-23T02:57:48;100196.28;;;3.01;100.00
79463;BME280;68931;47.286;18.756;2024-03-23T02:58:19;100198.84;;;3.03;100.00
79463;BME280;68931;47.286;18.756;2024-03-23T02:58:50;100210.66;;;3.12;100.00
79463;BME280;68931;47.286;18.756;2024-03-23T02:59:20;100184.53;;;2.91;100.00
79463;BME280;68931;47.286;18.756;2024-03-23T02:59:55;100178.59;;;2.88;100.00
79463;BME280;68931;47.286;18.756;2024-03-23T03:00:26;100187.13;;;2.91;100.00
79463;BME280;68931;47.286;18.756;2024-03-23T03:00:56;100181.03;;;2.92;100.00
79463;BME280;68931;47.286;18.756;2024-03-23T03:01:27;100191.97;;;3.02;100.00
79463;BME280;68931;47.286;18.756;2024-03-23T03:01:58;100192.00;;;3.00;100.00
79463;BME280;68931;47.286;18.756;2024-03-23T03:02:30;100215.81;;;3.13;100.00
79463;BME280;68931;47.286;18.756;2024-03-23T03:03:01;100197.19;;;3.00;100.00
79463;BME280;68931;47.286;18.756;2024-03-23T03:03:33;100175.97;;;2.89;100.00
79463;BME280;68931;47.286;18.756;2024-03-23T03:04:04;100189.41;;;3.00;100.00
79463;BME280;68931;47.286;18.756;2024-03-23T03:04:35;100187.78;;;2.98;100.00
79463;BME280;68931;47.286;18.756;2024-03-23T03:05:06;100204.88;;;3.03;100.00
79463;BME280;68931;47.286;18.756;2024-03-23T03:05:39;100179.59;;;2.84;100.00
79463;BME280;68931;47.286;18.756;2024-03-23T03:06:10;100212.72;;;3.00;100.00
79463;BME280;68931;47.286;18.756;2024-03-23T03:06:41;100184.81;;;2.82;100.00
79463;BME280;68931;47.286;18.756;2024-03-23T03:07:12;100180.63;;;2.78;100.00
79463;BME280;68931;47.286;18.756;2024-03-23T03:07:42;100189.81;;;2.88;100.00
79463;BME280;68931;47.286;18.756;2024-03-23T03:08:13;100191.59;;;2.86;100.00
79463;BME280;68931;47.286;18.756;2024-03-23T03:08:44;100183.88;;;2.85;99.99
79463;BME280;68931;47.286;18.756;2024-03-23T03:09:15;100171.97;;;2.79;100.00
79463;BME280;68931;47.286;18.756;2024-03-23T03:09:46;100190.56;;;2.92;100.00
79463;BME280;68931;47.286;18.756;2024-03-23T03:10:17;100197.47;;;2.91;100.00
79463;BME280;68931;47.286;18.756;2024-03-23T03:10:47;100194.00;;;2.92;100.00
79463;BME280;68931;47.286;18.756;2024-03-23T03:11:18;100197.34;;;2.96;100.00
79463;BME280;68931;47.286;18.756;2024-03-23T03:11:49;100161.75;;;2.75;100.00
79463;BME280;68931;47.286;18.756;2024-03-23T03:12:20;100177.84;;;2.84;99.80
79463;BME280;68931;47.286;18.756;2024-03-23T03:12:51;100166.03;;;2.76;99.82
79463;BME280;68931;47.286;18.756;2024-03-23T03:13:22;100184.72;;;2.85;99.70
79463;BME280;68931;47.286;18.756;2024-03-23T03:13:53;100199.91;;;2.97;99.46
79463;BME280;68931;47.286;18.756;2024-03-23T03:14:24;100172.84;;;2.78;99.52
79463;BME280;68931;47.286;18.756;2024-03-23T03:14:55;100195.66;;;2.95;99.86
79463;BME280;68931;47.286;18.756;2024-03-23T03:15:25;100210.25;;;2.97;99.84
79463;BME280;68931;47.286;18.756;2024-03-23T03:15:56;100209.44;;;2.95;100.00
79463;BME280;68931;47.286;18.756;2024-03-23T03:16:28;100178.00;;;2.80;100.00
79463;BME280;68931;47.286;18.756;2024-03-23T03:16:59;100187.34;;;2.84;99.83
79463;BME280;68931;47.286;18.756;2024-03-23T03:17:30;100160.16;;;2.71;99.37
79463;BME280;68931;47.286;18.756;2024-03-23T03:18:01;100180.47;;;2.83;100.00
79463;BME280;68931;47.286;18.756;2024-03-23T03:18:32;100196.47;;;2.97;100.00
79463;BME280;68931;47.286;18.756;2024-03-23T03:19:03;100165.97;;;2.77;100.00
79463;BME280;68931;47.286;18.756;2024-03-23T03:19:34;100210.94;;;3.02;99.80
79463;BME280;68931;47.286;18.756;2024-03-23T03:20:05;100177.19;;;2.78;100.00
79463;BME280;68931;47.286;18.756;2024-03-23T03:20:40;100208.59;;;2.95;99.79
79463;BME280;68931;47.286;18.756;2024-03-23T03:21:11;100184.72;;;2.85;99.96
79463;BME280;68931;47.286;18.756;2024-03-23T03:21:42;100180.59;;;2.80;100.00
79463;BME280;68931;47.286;18.756;2024-03-23T03:22:13;100165.28;;;2.72;100.00
79463;BME280;68931;47.286;18.756;2024-03-23T03:22:44;100189.81;;;2.88;99.94
79463;BME280;68931;47.286;18.756;2024-03-23T03:23:17;100177.09;;;2.81;99.99
79463;BME280;68931;47.286;18.756;2024-03-23T03:23:50;100187.19;;;2.90;100.00
79463;BME280;68931;47.286;18.756;2024-03-23T03:24:21;100161.66;;;2.78;99.74
79463;BME280;68931;47.286;18.756;2024-03-23T03:24:52;100192.97;;;2.98;99.70
79463;BME280;68931;47.286;18.756;2024-03-23T03:25:23;100169.25;;;2.82;100.00
79463;BME280;68931;47.286;18.756;2024-03-23T03:25:54;100176.00;;;2.88;99.27
79463;BME280;68931;47.286;18.756;2024-03-23T03:26:27;100171.06;;;2.80;99.30
79463;BME280;68931;47.286;18.756;2024-03-23T03:26:58;100193.09;;;2.93;99.02
79463;BME280;68931;47.286;18.756;2024-03-23T03:27:29;100183.84;;;2.86;99.04
79463;BME280;68931;47.286;18.756;2024-03-23T03:28:00;100177.09;;;2.81;98.95
79463;BME280;68931;47.286;18.756;2024-03-23T03:28:33;100195.09;;;2.85;99.49
79463;BME280;68931;47.286;18.756;2024-03-23T03:29:05;100184.81;;;2.82;99.09
79463;BME280;68931;47.286;18.756;2024-03-23T03:29:36;100166.19;;;2.71;99.53
79463;BME280;68931;47.286;18.756;2024-03-23T03:30:07;100172.97;;;2.74;99.35
79463;BME280;68931;47.286;18.756;2024-03-23T03:30:39;100158.53;;;2.67;99.40
79463;BME280;68931;47.286;18.756;2024-03-23T03:31:10;100166.06;;;2.74;99.33
79463;BME280;68931;47.286;18.756;2024-03-23T03:31:40;100167.72;;;2.77;99.98
79463;BME280;68931;47.286;18.756;2024-03-23T03:32:11;100210.25;;;2.97;100.00
79463;BME280;68931;47.286;18.756;2024-03-23T03:32:42;100163.44;;;2.76;99.62
79463;BME280;68931;47.286;18.756;2024-03-23T03:33:13;100167.59;;;2.81;100.00
79463;BME280;68931;47.286;18.756;2024-03-23T03:33:45;100165.13;;;2.77;100.00
79463;BME280;68931;47.286;18.756;2024-03-23T03:34:16;100163.47;;;2.74;100.00
79463;BME280;68931;47.286;18.756;2024-03-23T03:34:46;100156.66;;;2.72;99.96